sensor_id;sensor_type;location;lat;lon;timestamp;P1;P2;P0
55304;PMS7003;65692;51.378;19.824;2022-12-31T00:11:08;73.25;57.25;37.75
55304;PMS7003;65692;51.378;19.824;2022-12-31T00:22:09;80.00;55.50;34.50
55304;PMS7003;65692;51.378;19.824;2022-12-31T02:02:27;64.25;50.50;33.50
55304;PMS7003;65692;51.378;19.824;2022-12-31T02:13:04;61.75;47.50;32.75
55304;PMS7003;65692;51.378;19.824;2022-12-31T02:20:59;63.75;46.25;30.50
55304;PMS7003;65692;51.378;19.824;2022-12-31T02:31:13;64.75;45.00;31.25
55304;PMS7003;65692;51.378;19.824;2022-12-31T02:33:56;60.50;43.25;28.25
55304;PMS7003;65692;51.378;19.824;2022-12-31T02:36:26;62.00;50.25;34.50
55304;PMS7003;65692;51.378;19.824;2022-12-31T02:38:55;58.50;44.75;31.00
55304;PMS7003;65692;51.378;19.824;2022-12-31T02:41:22;51.00;45.50;30.25
55304;PMS7003;65692;51.378;19.824;2022-12-31T02:46:58;56.75;46.00;32.25
55304;PMS7003;65692;51.378;19.824;2022-12-31T02:52:30;51.50;40.25;27.00
55304;PMS7003;65692;51.378;19.824;2022-12-31T02:56:07;55.50;43.50;28.00
55304;PMS7003;65692;51.378;19.824;2022-12-31T03:00:36;46.50;35.00;23.75
55304;PMS7003;65692;51.378;19.824;2022-12-31T03:03:23;60.75;44.50;31.25
55304;PMS7003;65692;51.378;19.824;2022-12-31T03:05:51;42.00;35.75;23.75
55304;PMS7003;65692;51.378;19.824;2022-12-31T03:08:21;60.00;45.25;30.25
55304;PMS7003;65692;51.378;19.824;2022-12-31T03:10:48;60.00;47.25;32.00
55304;PMS7003;65692;51.378;19.824;2022-12-31T03:13:15;60.75;43.75;29.25
55304;PMS7003;65692;51.378;19.824;2022-12-31T03:15:41;60.50;44.50;31.25
55304;PMS7003;65692;51.378;19.824;2022-12-31T03:18:12;53.25;40.50;30.00
55304;PMS7003;65692;51.378;19.824;2022-12-31T03:20:40;61.00;44.25;31.00
55304;PMS7003;65692;51.378;19.824;2022-12-31T03:23:30;61.75;42.50;29.25
55304;PMS7003;65692;51.378;19.824;2022-12-31T03:25:57;52.50;41.50;26.25
55304;PMS7003;65692;51.378;19.824;2022-12-31T03:28:25;46.50;34.50;26.25
55304;PMS7003;65692;51.378;19.824;2022-12-31T03:30:53;57.25;42.50;31.00
55304;PMS7003;65692;51.378;19.824;2022-12-31T03:33:20;52.50;44.00;29.75
55304;PMS7003;65692;51.378;19.824;2022-12-31T03:35:47;59.00;42.25;27.75
55304;PMS7003;65692;51.378;19.824;2022-12-31T03:38:14;48.25;40.00;26.00
55304;PMS7003;65692;51.378;19.824;2022-12-31T03:40:44;58.00;44.00;30.25
55304;PMS7003;65692;51.378;19.824;2022-12-31T03:43:11;58.25;46.50;29.50
55304;PMS7003;65692;51.378;19.824;2022-12-31T03:45:37;56.75;43.50;29.00
55304;PMS7003;65692;51.378;19.824;2022-12-31T03:48:05;50.25;40.00;26.50
55304;PMS7003;65692;51.378;19.824;2022-12-31T03:50:32;38.50;30.50;25.00
55304;PMS7003;65692;51.378;19.824;2022-12-31T03:52:58;40.25;35.75;26.75
55304;PMS7003;65692;51.378;19.824;2022-12-31T03:55:25;42.75;38.00;27.00
55304;PMS7003;65692;51.378;19.824;2022-12-31T03:57:52;35.75;27.25;16.50
55304;PMS7003;65692;51.378;19.824;2022-12-31T04:00:19;50.00;38.75;25.00
55304;PMS7003;65692;51.378;19.824;2022-12-31T04:02:46;40.75;33.75;24.50
55304;PMS7003;65692;51.378;19.824;2022-12-31T04:05:13;36.25;32.00;21.00
55304;PMS7003;65692;51.378;19.824;2022-12-31T04:07:40;30.00;27.00;22.00
55304;PMS7003;65692;51.378;19.824;2022-12-31T04:10:07;38.00;35.00;23.33
55304;PMS7003;65692;51.378;19.824;2022-12-31T04:12:34;32.67;25.33;21.00
55304;PMS7003;65692;51.378;19.824;2022-12-31T04:15:01;39.00;33.00;21.00
55304;PMS7003;65692;51.378;19.824;2022-12-31T04:17:27;27.33;19.33;12.33
55304;PMS7003;65692;51.378;19.824;2022-12-31T04:19:54;31.00;24.33;19.00
55304;PMS7003;65692;51.378;19.824;2022-12-31T04:22:20;26.33;24.33;18.00
55304;PMS7003;65692;51.378;19.824;2022-12-31T04:24:47;38.33;27.67;19.33
55304;PMS7003;65692;51.378;19.824;2022-12-31T04:27:13;34.00;21.33;17.33
55304;PMS7003;65692;51.378;19.824;2022-12-31T04:29:40;30.33;21.67;14.67
55304;PMS7003;65692;51.378;19.824;2022-12-31T04:32:07;25.67;21.00;15.67
55304;PMS7003;65692;51.378;19.824;2022-12-31T04:34:33;27.00;23.00;17.67
55304;PMS7003;65692;51.378;19.824;2022-12-31T04:37:00;24.33;23.00;17.33
55304;PMS7003;65692;51.378;19.824;2022-12-31T04:39:27;25.00;19.67;15.00
55304;PMS7003;65692;51.378;19.824;2022-12-31T04:41:53;26.50;21.75;14.25
55304;PMS7003;65692;51.378;19.824;2022-12-31T04:44:20;25.50;20.00;14.75
55304;PMS7003;65692;51.378;19.824;2022-12-31T04:46:46;23.00;19.50;14.25
55304;PMS7003;65692;51.378;19.824;2022-12-31T04:49:13;29.75;18.50;14.25
55304;PMS7003;65692;51.378;19.824;2022-12-31T04:51:39;27.00;21.50;15.75
55304;PMS7003;65692;51.378;19.824;2022-12-31T04:54:06;21.50;19.75;15.25
55304;PMS7003;65692;51.378;19.824;2022-12-31T04:56:32;20.25;18.25;14.50
55304;PMS7003;65692;51.378;19.824;2022-12-31T04:59:02;16.75;14.00;9.75
55304;PMS7003;65692;51.378;19.824;2022-12-31T05:01:29;18.75;16.00;13.00
55304;PMS7003;65692;51.378;19.824;2022-12-31T05:03:56;26.00;17.75;12.25
55304;PMS7003;65692;51.378;19.824;2022-12-31T05:06:23;27.50;17.00;13.25
55304;PMS7003;65692;51.378;19.824;2022-12-31T05:08:50;21.00;17.50;13.50
55304;PMS7003;65692;51.378;19.824;2022-12-31T05:11:16;22.75;19.50;14.00
55304;PMS7003;65692;51.378;19.824;2022-12-31T05:13:43;22.25;18.00;13.25
55304;PMS7003;65692;51.378;19.824;2022-12-31T05:16:09;23.00;20.25;14.50
55304;PMS7003;65692;51.378;19.824;2022-12-31T05:18:36;18.75;15.75;12.00
55304;PMS7003;65692;51.378;19.824;2022-12-31T05:21:02;19.00;14.00;9.75
55304;PMS7003;65692;51.378;19.824;2022-12-31T05:23:29;21.50;16.00;14.00
55304;PMS7003;65692;51.378;19.824;2022-12-31T05:25:55;19.50;16.00;11.00
55304;PMS7003;65692;51.378;19.824;2022-12-31T05:28:21;18.50;14.75;10.50
55304;PMS7003;65692;51.378;19.824;2022-12-31T05:30:48;20.00;17.25;13.00
55304;PMS7003;65692;51.378;19.824;2022-12-31T05:33:16;18.50;13.75;10.00
55304;PMS7003;65692;51.378;19.824;2022-12-31T05:35:43;14.75;14.75;10.00
55304;PMS7003;65692;51.378;19.824;2022-12-31T05:38:10;18.50;15.00;12.00
55304;PMS7003;65692;51.378;19.824;2022-12-31T05:40:36;21.00;15.75;11.25
55304;PMS7003;65692;51.378;19.824;2022-12-31T05:43:03;23.75;15.75;11.50
55304;PMS7003;65692;51.378;19.824;2022-12-31T05:45:29;20.25;13.25;9.75
55304;PMS7003;65692;51.378;19.824;2022-12-31T05:47:56;16.50;13.25;10.00
55304;PMS7003;65692;51.378;19.824;2022-12-31T05:50:23;23.75;17.25;11.00
55304;PMS7003;65692;51.378;19.824;2022-12-31T05:52:49;16.50;15.50;11.50
55304;PMS7003;65692;51.378;19.824;2022-12-31T05:55:16;19.50;16.25;14.00
55304;PMS7003;65692;51.378;19.824;2022-12-31T05:57:42;16.00;15.50;11.50
55304;PMS7003;65692;51.378;19.824;2022-12-31T06:00:09;17.50;13.50;10.25
55304;PMS7003;65692;51.378;19.824;2022-12-31T06:02:36;16.50;10.75;6.00
55304;PMS7003;65692;51.378;19.824;2022-12-31T06:05:02;16.50;13.75;11.00
55304;PMS7003;65692;51.378;19.824;2022-12-31T06:07:29;20.75;16.25;11.50
55304;PMS7003;65692;51.378;19.824;2022-12-31T06:09:55;14.75;14.00;11.00
55304;PMS7003;65692;51.378;19.824;2022-12-31T06:12:22;13.00;12.25;10.25
55304;PMS7003;65692;51.378;19.824;2022-12-31T06:14:48;16.50;15.75;11.00
55304;PMS7003;65692;51.378;19.824;2022-12-31T06:17:15;15.75;15.00;12.00
55304;PMS7003;65692;51.378;19.824;2022-12-31T06:19:41;25.50;22.50;12.00
55304;PMS7003;65692;51.378;19.824;2022-12-31T06:22:07;13.75;11.25;8.75
55304;PMS7003;65692;51.378;19.824;2022-12-31T06:24:34;19.00;13.25;10.50
55304;PMS7003;65692;51.378;19.824;2022-12-31T06:27:00;15.25;15.25;11.00
55304;PMS7003;65692;51.378;19.824;2022-12-31T06:29:27;21.25;16.75;11.50
55304;PMS7003;65692;51.378;19.824;2022-12-31T06:31:53;18.50;15.00;11.75
55304;PMS7003;65692;51.378;19.824;2022-12-31T06:34:19;15.25;10.00;8.50
55304;PMS7003;65692;51.378;19.824;2022-12-31T06:36:46;16.50;15.25;11.25
55304;PMS7003;65692;51.378;19.824;2022-12-31T06:39:12;21.75;14.75;11.75
55304;PMS7003;65692;51.378;19.824;2022-12-31T06:41:39;15.00;12.25;9.25
55304;PMS7003;65692;51.378;19.824;2022-12-31T06:44:05;19.00;12.50;10.00
55304;PMS7003;65692;51.378;19.824;2022-12-31T06:46:32;20.50;16.25;12.25
55304;PMS7003;65692;51.378;19.824;2022-12-31T06:48:58;19.50;19.25;14.50
55304;PMS7003;65692;51.378;19.824;2022-12-31T06:51:25;15.25;10.50;7.50
55304;PMS7003;65692;51.378;19.824;2022-12-31T06:53:51;20.00;16.00;11.00
55304;PMS7003;65692;51.378;19.824;2022-12-31T06:56:19;19.50;15.00;11.75
55304;PMS7003;65692;51.378;19.824;2022-12-31T06:58:45;16.25;15.75;10.25
55304;PMS7003;65692;51.378;19.824;2022-12-31T07:06:10;18.75;15.25;11.50
55304;PMS7003;65692;51.378;19.824;2022-12-31T07:11:29;17.00;13.00;11.00
55304;PMS7003;65692;51.378;19.824;2022-12-31T07:16:22;14.50;13.25;10.25
55304;PMS7003;65692;51.378;19.824;2022-12-31T07:21:32;20.00;15.50;13.50
55304;PMS7003;65692;51.378;19.824;2022-12-31T07:24:00;14.50;10.50;7.00
55304;PMS7003;65692;51.378;19.824;2022-12-31T07:28:59;17.25;13.75;10.25
55304;PMS7003;65692;51.378;19.824;2022-12-31T07:33:57;16.00;13.00;10.75
55304;PMS7003;65692;51.378;19.824;2022-12-31T07:49:10;16.00;12.75;10.00
55304;PMS7003;65692;51.378;19.824;2022-12-31T07:51:37;16.00;12.50;9.50
55304;PMS7003;65692;51.378;19.824;2022-12-31T07:54:04;15.75;10.75;9.50
55304;PMS7003;65692;51.378;19.824;2022-12-31T07:56:39;15.00;11.00;8.25
55304;PMS7003;65692;51.378;19.824;2022-12-31T08:04:24;6.00;5.50;3.00
55304;PMS7003;65692;51.378;19.824;2022-12-31T08:09:32;16.75;14.00;11.50
55304;PMS7003;65692;51.378;19.824;2022-12-31T08:12:01;25.00;20.75;15.50
55304;PMS7003;65692;51.378;19.824;2022-12-31T08:14:28;15.75;15.50;12.50
55304;PMS7003;65692;51.378;19.824;2022-12-31T08:16:55;14.00;14.00;10.25
55304;PMS7003;65692;51.378;19.824;2022-12-31T08:19:29;18.00;17.00;12.00
55304;PMS7003;65692;51.378;19.824;2022-12-31T08:34:53;10.25;10.25;7.75
55304;PMS7003;65692;51.378;19.824;2022-12-31T08:37:42;15.25;12.75;8.50
55304;PMS7003;65692;51.378;19.824;2022-12-31T08:40:15;15.00;12.50;8.50
55304;PMS7003;65692;51.378;19.824;2022-12-31T08:42:54;17.50;14.75;11.75
55304;PMS7003;65692;51.378;19.824;2022-12-31T08:45:35;17.75;15.50;11.25
55304;PMS7003;65692;51.378;19.824;2022-12-31T08:48:04;6.75;2.25;1.00
55304;PMS7003;65692;51.378;19.824;2022-12-31T08:50:33;20.00;16.00;10.25
55304;PMS7003;65692;51.378;19.824;2022-12-31T08:53:00;14.75;14.00;9.00
55304;PMS7003;65692;51.378;19.824;2022-12-31T08:55:26;10.00;8.00;7.25
55304;PMS7003;65692;51.378;19.824;2022-12-31T09:00:28;40.75;28.75;20.00
55304;PMS7003;65692;51.378;19.824;2022-12-31T09:18:58;30.25;22.75;16.00
55304;PMS7003;65692;51.378;19.824;2022-12-31T09:21:25;30.25;24.25;16.50
55304;PMS7003;65692;51.378;19.824;2022-12-31T09:23:51;33.75;29.25;19.50
55304;PMS7003;65692;51.378;19.824;2022-12-31T09:34:19;14.00;13.00;11.75
55304;PMS7003;65692;51.378;19.824;2022-12-31T09:36:49;14.00;12.25;10.00
55304;PMS7003;65692;51.378;19.824;2022-12-31T09:39:22;17.75;13.75;8.00
55304;PMS7003;65692;51.378;19.824;2022-12-31T09:42:03;18.00;15.75;14.50
55304;PMS7003;65692;51.378;19.824;2022-12-31T09:47:29;11.00;8.75;6.25
55304;PMS7003;65692;51.378;19.824;2022-12-31T09:57:42;15.50;14.25;9.00
55304;PMS7003;65692;51.378;19.824;2022-12-31T10:00:21;18.50;14.25;12.00
55304;PMS7003;65692;51.378;19.824;2022-12-31T10:05:37;14.00;9.75;8.00
55304;PMS7003;65692;51.378;19.824;2022-12-31T10:08:42;12.00;11.00;7.75
55304;PMS7003;65692;51.378;19.824;2022-12-31T10:11:18;9.00;9.00;6.50
55304;PMS7003;65692;51.378;19.824;2022-12-31T10:18:59;14.25;11.25;9.00
55304;PMS7003;65692;51.378;19.824;2022-12-31T10:34:23;11.50;10.50;8.50
55304;PMS7003;65692;51.378;19.824;2022-12-31T10:36:58;15.50;10.25;9.00
55304;PMS7003;65692;51.378;19.824;2022-12-31T10:47:32;15.00;12.50;10.00
55304;PMS7003;65692;51.378;19.824;2022-12-31T10:52:58;18.00;13.75;10.25
55304;PMS7003;65692;51.378;19.824;2022-12-31T10:55:38;16.50;13.00;9.50
55304;PMS7003;65692;51.378;19.824;2022-12-31T11:25:13;18.25;17.25;13.25
55304;PMS7003;65692;51.378;19.824;2022-12-31T11:35:41;18.75;14.50;13.00
55304;PMS7003;65692;51.378;19.824;2022-12-31T11:38:28;9.25;8.25;6.50
55304;PMS7003;65692;51.378;19.824;2022-12-31T11:41:10;18.50;14.50;12.00
55304;PMS7003;65692;51.378;19.824;2022-12-31T11:44:01;22.00;20.00;13.75
55304;PMS7003;65692;51.378;19.824;2022-12-31T11:52:47;6.00;4.00;4.00
55304;PMS7003;65692;51.378;19.824;2022-12-31T11:57:15;21.50;13.25;12.00
55304;PMS7003;65692;51.378;19.824;2022-12-31T11:59:43;17.25;15.75;12.75
55304;PMS7003;65692;51.378;19.824;2022-12-31T12:02:27;18.25;13.50;10.00
55304;PMS7003;65692;51.378;19.824;2022-12-31T12:04:56;16.75;14.00;10.50
55304;PMS7003;65692;51.378;19.824;2022-12-31T12:07:23;29.00;24.25;17.25
55304;PMS7003;65692;51.378;19.824;2022-12-31T12:09:51;23.50;19.00;13.50
55304;PMS7003;65692;51.378;19.824;2022-12-31T12:12:18;13.50;12.25;9.25
55304;PMS7003;65692;51.378;19.824;2022-12-31T12:14:48;13.00;11.50;9.25
55304;PMS7003;65692;51.378;19.824;2022-12-31T12:17:16;13.25;10.75;8.75
55304;PMS7003;65692;51.378;19.824;2022-12-31T12:19:52;14.00;12.75;9.25
55304;PMS7003;65692;51.378;19.824;2022-12-31T12:22:23;15.50;13.25;9.75
55304;PMS7003;65692;51.378;19.824;2022-12-31T12:25:25;14.25;13.00;9.75
55304;PMS7003;65692;51.378;19.824;2022-12-31T12:27:43;11.25;9.50;7.75
55304;PMS7003;65692;51.378;19.824;2022-12-31T12:30:10;10.25;9.25;7.75
55304;PMS7003;65692;51.378;19.824;2022-12-31T12:32:37;11.75;11.75;9.75
55304;PMS7003;65692;51.378;19.824;2022-12-31T12:35:14;12.25;10.00;8.00
55304;PMS7003;65692;51.378;19.824;2022-12-31T12:37:41;16.25;12.00;9.75
55304;PMS7003;65692;51.378;19.824;2022-12-31T12:40:28;14.25;10.50;8.00
55304;PMS7003;65692;51.378;19.824;2022-12-31T12:42:59;10.00;10.00;8.50
55304;PMS7003;65692;51.378;19.824;2022-12-31T12:45:28;15.25;11.25;9.00
55304;PMS7003;65692;51.378;19.824;2022-12-31T12:47:56;17.75;14.00;10.00
55304;PMS7003;65692;51.378;19.824;2022-12-31T12:50:34;19.00;13.25;8.75
55304;PMS7003;65692;51.378;19.824;2022-12-31T12:55:40;24.75;21.50;15.25
55304;PMS7003;65692;51.378;19.824;2022-12-31T13:03:18;13.00;10.00;8.75
55304;PMS7003;65692;51.378;19.824;2022-12-31T13:05:57;11.25;10.00;9.00
55304;PMS7003;65692;51.378;19.824;2022-12-31T13:11:21;22.25;17.50;13.75
55304;PMS7003;65692;51.378;19.824;2022-12-31T13:16:50;15.00;11.75;9.75
55304;PMS7003;65692;51.378;19.824;2022-12-31T13:22:07;13.50;9.00;7.75
55304;PMS7003;65692;51.378;19.824;2022-12-31T13:24:43;15.50;9.75;8.00
55304;PMS7003;65692;51.378;19.824;2022-12-31T13:27:18;10.00;8.50;6.25
55304;PMS7003;65692;51.378;19.824;2022-12-31T13:29:46;8.75;8.00;5.50
55304;PMS7003;65692;51.378;19.824;2022-12-31T13:32:18;15.00;10.50;8.75
55304;PMS7003;65692;51.378;19.824;2022-12-31T13:34:47;10.00;10.00;8.00
55304;PMS7003;65692;51.378;19.824;2022-12-31T13:39:45;12.25;11.00;8.50
55304;PMS7003;65692;51.378;19.824;2022-12-31T13:42:17;16.50;14.50;11.00
55304;PMS7003;65692;51.378;19.824;2022-12-31T13:44:59;17.25;13.25;10.25
55304;PMS7003;65692;51.378;19.824;2022-12-31T13:47:34;14.75;11.50;9.00
55304;PMS7003;65692;51.378;19.824;2022-12-31T13:55:02;13.33;10.00;8.67
55304;PMS7003;65692;51.378;19.824;2022-12-31T13:57:39;10.75;9.75;8.25
55304;PMS7003;65692;51.378;19.824;2022-12-31T14:02:54;10.50;8.50;7.00
55304;PMS7003;65692;51.378;19.824;2022-12-31T14:05:24;13.75;10.00;8.00
55304;PMS7003;65692;51.378;19.824;2022-12-31T14:07:58;14.50;12.50;9.00
55304;PMS7003;65692;51.378;19.824;2022-12-31T14:10:50;9.00;8.00;7.00
55304;PMS7003;65692;51.378;19.824;2022-12-31T14:18:55;10.25;9.00;7.50
55304;PMS7003;65692;51.378;19.824;2022-12-31T14:21:29;15.00;11.50;9.00
55304;PMS7003;65692;51.378;19.824;2022-12-31T14:24:08;13.00;10.75;8.75
55304;PMS7003;65692;51.378;19.824;2022-12-31T14:26:43;8.75;8.50;7.50
55304;PMS7003;65692;51.378;19.824;2022-12-31T14:34:13;10.25;8.00;7.00
55304;PMS7003;65692;51.378;19.824;2022-12-31T14:44:41;26.75;17.50;12.25
55304;PMS7003;65692;51.378;19.824;2022-12-31T14:47:30;17.00;12.50;10.00
55304;PMS7003;65692;51.378;19.824;2022-12-31T14:52:49;9.25;7.25;6.25
55304;PMS7003;65692;51.378;19.824;2022-12-31T14:57:43;7.75;7.75;5.25
55304;PMS7003;65692;51.378;19.824;2022-12-31T15:00:33;13.25;6.75;4.75
55304;PMS7003;65692;51.378;19.824;2022-12-31T15:03:05;12.75;11.00;7.75
55304;PMS7003;65692;51.378;19.824;2022-12-31T15:05:32;14.25;9.25;6.00
55304;PMS7003;65692;51.378;19.824;2022-12-31T15:23:34;32.00;23.75;18.50
55304;PMS7003;65692;51.378;19.824;2022-12-31T15:26:02;16.50;15.00;11.50
55304;PMS7003;65692;51.378;19.824;2022-12-31T15:28:31;8.75;8.00;4.00
55304;PMS7003;65692;51.378;19.824;2022-12-31T15:31:01;17.50;14.25;9.75
55304;PMS7003;65692;51.378;19.824;2022-12-31T15:35:55;14.75;14.00;11.00
55304;PMS7003;65692;51.378;19.824;2022-12-31T15:38:30;25.50;23.25;17.50
55304;PMS7003;65692;51.378;19.824;2022-12-31T15:40:57;12.75;11.25;8.50
55304;PMS7003;65692;51.378;19.824;2022-12-31T15:46:15;16.25;11.50;9.50
55304;PMS7003;65692;51.378;19.824;2022-12-31T15:48:43;16.50;12.00;6.00
55304;PMS7003;65692;51.378;19.824;2022-12-31T15:51:21;16.25;16.25;14.00
55304;PMS7003;65692;51.378;19.824;2022-12-31T15:53:50;21.50;17.00;13.75
55304;PMS7003;65692;51.378;19.824;2022-12-31T15:56:30;14.25;12.75;10.25
55304;PMS7003;65692;51.378;19.824;2022-12-31T15:58:57;22.50;16.25;11.25
55304;PMS7003;65692;51.378;19.824;2022-12-31T16:01:31;14.00;13.00;10.50
55304;PMS7003;65692;51.378;19.824;2022-12-31T16:06:28;14.25;12.00;8.50
55304;PMS7003;65692;51.378;19.824;2022-12-31T16:08:55;20.00;16.50;10.00
55304;PMS7003;65692;51.378;19.824;2022-12-31T16:11:22;17.00;12.75;9.00
55304;PMS7003;65692;51.378;19.824;2022-12-31T16:13:51;17.00;12.50;9.25
55304;PMS7003;65692;51.378;19.824;2022-12-31T16:18:45;17.75;14.50;10.25
55304;PMS7003;65692;51.378;19.824;2022-12-31T16:21:25;19.50;17.25;13.25
55304;PMS7003;65692;51.378;19.824;2022-12-31T16:23:53;16.00;14.75;11.00
55304;PMS7003;65692;51.378;19.824;2022-12-31T16:26:21;22.75;18.00;13.00
55304;PMS7003;65692;51.378;19.824;2022-12-31T16:28:48;28.75;22.50;16.00
55304;PMS7003;65692;51.378;19.824;2022-12-31T16:31:16;24.25;20.75;14.75
55304;PMS7003;65692;51.378;19.824;2022-12-31T16:33:43;15.00;11.75;9.25
55304;PMS7003;65692;51.378;19.824;2022-12-31T16:36:17;28.75;21.50;15.50
55304;PMS7003;65692;51.378;19.824;2022-12-31T16:38:44;24.25;19.00;14.25
55304;PMS7003;65692;51.378;19.824;2022-12-31T16:41:17;15.50;8.50;7.25
55304;PMS7003;65692;51.378;19.824;2022-12-31T16:43:45;16.25;14.75;11.00
55304;PMS7003;65692;51.378;19.824;2022-12-31T16:46:17;17.75;14.25;11.25
55304;PMS7003;65692;51.378;19.824;2022-12-31T16:49:10;14.75;11.50;7.75
55304;PMS7003;65692;51.378;19.824;2022-12-31T16:51:31;15.25;14.25;12.25
55304;PMS7003;65692;51.378;19.824;2022-12-31T16:54:01;19.50;16.25;11.25
55304;PMS7003;65692;51.378;19.824;2022-12-31T16:56:29;26.25;15.50;11.75
55304;PMS7003;65692;51.378;19.824;2022-12-31T16:58:58;36.50;32.25;21.75
55304;PMS7003;65692;51.378;19.824;2022-12-31T17:01:27;21.00;17.50;13.75
55304;PMS7003;65692;51.378;19.824;2022-12-31T17:03:59;17.75;14.25;11.50
55304;PMS7003;65692;51.378;19.824;2022-12-31T17:06:28;25.75;22.50;18.50
55304;PMS7003;65692;51.378;19.824;2022-12-31T17:09:18;23.75;16.75;12.25
55304;PMS7003;65692;51.378;19.824;2022-12-31T17:14:26;19.50;16.50;12.75
55304;PMS7003;65692;51.378;19.824;2022-12-31T17:16:54;16.50;12.00;9.00
55304;PMS7003;65692;51.378;19.824;2022-12-31T17:19:30;20.00;15.50;13.00
55304;PMS7003;65692;51.378;19.824;2022-12-31T17:21:58;16.00;14.50;10.00
55304;PMS7003;65692;51.378;19.824;2022-12-31T17:24:25;20.00;18.25;13.75
55304;PMS7003;65692;51.378;19.824;2022-12-31T17:26:52;19.50;13.50;11.25
55304;PMS7003;65692;51.378;19.824;2022-12-31T17:29:20;20.00;14.75;11.50
55304;PMS7003;65692;51.378;19.824;2022-12-31T17:32:03;22.25;14.75;11.00
55304;PMS7003;65692;51.378;19.824;2022-12-31T17:34:35;16.00;12.25;9.50
55304;PMS7003;65692;51.378;19.824;2022-12-31T17:39:40;22.75;18.00;12.75
55304;PMS7003;65692;51.378;19.824;2022-12-31T17:42:08;19.00;17.75;13.75
55304;PMS7003;65692;51.378;19.824;2022-12-31T17:44:38;14.50;14.25;12.00
55304;PMS7003;65692;51.378;19.824;2022-12-31T17:47:06;16.00;14.75;11.00
55304;PMS7003;65692;51.378;19.824;2022-12-31T17:49:33;17.25;11.50;8.75
55304;PMS7003;65692;51.378;19.824;2022-12-31T17:52:01;22.00;18.75;11.75
55304;PMS7003;65692;51.378;19.824;2022-12-31T17:54:27;15.50;13.25;10.25
55304;PMS7003;65692;51.378;19.824;2022-12-31T17:56:54;14.25;12.00;10.50
55304;PMS7003;65692;51.378;19.824;2022-12-31T17:59:21;20.00;19.00;13.00
55304;PMS7003;65692;51.378;19.824;2022-12-31T18:01:49;15.25;12.25;9.00
55304;PMS7003;65692;51.378;19.824;2022-12-31T18:04:16;17.00;17.00;11.75
55304;PMS7003;65692;51.378;19.824;2022-12-31T18:06:44;21.00;13.00;10.00
55304;PMS7003;65692;51.378;19.824;2022-12-31T18:09:10;18.00;15.75;11.75
55304;PMS7003;65692;51.378;19.824;2022-12-31T18:11:37;17.25;15.00;12.00
55304;PMS7003;65692;51.378;19.824;2022-12-31T18:14:05;14.75;13.00;9.25
55304;PMS7003;65692;51.378;19.824;2022-12-31T18:16:32;14.00;11.00;8.75
55304;PMS7003;65692;51.378;19.824;2022-12-31T18:18:59;18.50;13.00;8.75
55304;PMS7003;65692;51.378;19.824;2022-12-31T18:23:52;20.00;16.25;12.25
55304;PMS7003;65692;51.378;19.824;2022-12-31T18:26:19;20.67;16.00;13.00
55304;PMS7003;65692;51.378;19.824;2022-12-31T18:28:46;19.00;16.00;11.50
55304;PMS7003;65692;51.378;19.824;2022-12-31T18:31:14;20.00;14.75;10.50
55304;PMS7003;65692;51.378;19.824;2022-12-31T18:33:42;16.75;16.75;12.25
55304;PMS7003;65692;51.378;19.824;2022-12-31T18:36:10;12.50;8.25;7.25
55304;PMS7003;65692;51.378;19.824;2022-12-31T18:38:37;20.50;17.50;14.00
55304;PMS7003;65692;51.378;19.824;2022-12-31T18:41:05;18.75;17.50;10.25
55304;PMS7003;65692;51.378;19.824;2022-12-31T18:43:31;21.50;18.75;13.25
55304;PMS7003;65692;51.378;19.824;2022-12-31T18:45:58;18.25;14.25;11.75
55304;PMS7003;65692;51.378;19.824;2022-12-31T18:48:24;22.25;21.00;14.75
55304;PMS7003;65692;51.378;19.824;2022-12-31T18:50:51;15.25;14.25;10.00
55304;PMS7003;65692;51.378;19.824;2022-12-31T18:53:19;23.50;19.00;14.50
55304;PMS7003;65692;51.378;19.824;2022-12-31T18:58:13;19.00;16.75;12.50
55304;PMS7003;65692;51.378;19.824;2022-12-31T19:00:39;19.75;19.75;16.00
55304;PMS7003;65692;51.378;19.824;2022-12-31T19:03:08;23.25;20.75;14.25
55304;PMS7003;65692;51.378;19.824;2022-12-31T19:05:38;21.75;16.00;12.25
55304;PMS7003;65692;51.378;19.824;2022-12-31T19:08:04;19.50;14.00;10.00
55304;PMS7003;65692;51.378;19.824;2022-12-31T19:10:31;16.75;14.25;10.75
55304;PMS7003;65692;51.378;19.824;2022-12-31T19:12:59;13.25;12.75;9.00
55304;PMS7003;65692;51.378;19.824;2022-12-31T19:15:29;15.75;15.25;10.00
55304;PMS7003;65692;51.378;19.824;2022-12-31T19:18:01;15.25;12.50;9.50
55304;PMS7003;65692;51.378;19.824;2022-12-31T19:20:29;10.00;10.00;9.00
55304;PMS7003;65692;51.378;19.824;2022-12-31T19:23:14;13.75;12.75;10.00
55304;PMS7003;65692;51.378;19.824;2022-12-31T19:25:41;11.50;10.00;7.50
55304;PMS7003;65692;51.378;19.824;2022-12-31T19:28:13;18.50;12.75;10.00
55304;PMS7003;65692;51.378;19.824;2022-12-31T19:30:40;10.25;10.25;8.00
55304;PMS7003;65692;51.378;19.824;2022-12-31T19:33:06;9.00;7.50;5.75
55304;PMS7003;65692;51.378;19.824;2022-12-31T19:35:33;16.00;12.50;10.25
55304;PMS7003;65692;51.378;19.824;2022-12-31T19:38:00;15.50;12.00;8.75
55304;PMS7003;65692;51.378;19.824;2022-12-31T19:40:27;16.00;12.00;9.25
55304;PMS7003;65692;51.378;19.824;2022-12-31T19:42:54;13.25;11.25;8.00
55304;PMS7003;65692;51.378;19.824;2022-12-31T19:45:22;11.00;8.75;7.75
55304;PMS7003;65692;51.378;19.824;2022-12-31T19:47:51;14.75;12.00;9.25
55304;PMS7003;65692;51.378;19.824;2022-12-31T19:50:19;15.75;11.25;9.25
55304;PMS7003;65692;51.378;19.824;2022-12-31T19:52:46;11.00;9.00;8.00
55304;PMS7003;65692;51.378;19.824;2022-12-31T19:55:15;11.50;11.50;8.25
55304;PMS7003;65692;51.378;19.824;2022-12-31T19:57:42;16.00;14.50;10.75
55304;PMS7003;65692;51.378;19.824;2022-12-31T20:00:09;14.25;10.75;8.00
55304;PMS7003;65692;51.378;19.824;2022-12-31T20:02:36;15.25;13.25;9.75
55304;PMS7003;65692;51.378;19.824;2022-12-31T20:05:03;12.75;11.00;8.50
55304;PMS7003;65692;51.378;19.824;2022-12-31T20:07:30;14.00;11.25;8.50
55304;PMS7003;65692;51.378;19.824;2022-12-31T20:09:56;11.50;11.25;8.25
55304;PMS7003;65692;51.378;19.824;2022-12-31T20:12:23;13.50;9.75;9.00
55304;PMS7003;65692;51.378;19.824;2022-12-31T20:14:49;14.25;9.75;8.00
55304;PMS7003;65692;51.378;19.824;2022-12-31T20:17:16;13.25;12.25;9.25
55304;PMS7003;65692;51.378;19.824;2022-12-31T20:19:42;12.50;9.00;8.00
55304;PMS7003;65692;51.378;19.824;2022-12-31T20:22:09;14.75;10.75;9.00
55304;PMS7003;65692;51.378;19.824;2022-12-31T20:24:35;11.00;10.25;7.50
55304;PMS7003;65692;51.378;19.824;2022-12-31T20:27:02;16.25;11.25;8.75
55304;PMS7003;65692;51.378;19.824;2022-12-31T20:29:29;10.00;9.00;7.25